- Siena (Round Rock, TX) - Nearby METAR Reports

Nearby METAR Reports

 

KEDC - Austin Exec, Texas, USA
Distance from station: SSE 10mi, 17km
Updated: Sun, 28-Nov-2021 11:15pm CST

 Wind from NW
Wind: NW 3 mph , 6 km/h
Temperature: 50°F , 10°C
Dew Point: 37°F , 3°C
Humidity: 62%
Barometer: 30.25 inHg , 1024.4 hPa
Visibility: 10 miles , 16 km
2021/11/29 05:15 KEDC 290515Z AUTO 31003KT 10SM 10/03 A3025 RMK AO2
KGTU - Georgetown, Texas, USA
Distance from station: NNW 11mi, 17km
Updated: Sun, 28-Nov-2021 10:56pm CST
Clear
Clear
 Wind from calm
Wind: Calm
Temperature: 46°F , 8°C
Dew Point: 37°F , 3°C
Humidity: 71%
Barometer: 30.28 inHg , 1025.4 hPa
Clouds: Clear
Visibility: 10 miles , 16 km
2021/11/29 04:56 KGTU 290456Z AUTO 00000KT 10SM CLR 08/03 A3028 RMK AO2 SLP255 T00780028
 
KATT - Austin/Mabry, Texas, USA
Distance from station: SSW 18mi, 30km
Updated: Sun, 28-Nov-2021 10:51pm CST
Clear
Clear
 Wind from calm
Wind: Calm
Temperature: 48°F , 9°C
Dew Point: 41°F , 5°C
Humidity: 76%
Barometer: 30.27 inHg , 1025.1 hPa
Clouds: Clear
Visibility: 10 miles , 16 km
2021/11/29 04:51 KATT 290451Z AUTO 00000KT 10SM CLR 09/05 A3027 RMK AO2 SLP252 T00890050 $
KRYW - Lago Vista, Texas, USA
Distance from station: W 22mi, 35km
Updated: Sun, 28-Nov-2021 11:15pm CST
Clear
Clear
 Wind from NNW
Wind: NNW 3 mph , 6 km/h
Temperature: 50°F , 10°C
Dew Point: 34°F , 1°C
Humidity: 54%
Barometer: 30.27 inHg , 1025.1 hPa
Clouds: Clear
Visibility: 10 miles , 16 km
2021/11/29 05:15 KRYW 290515Z AUTO 33003KT 10SM CLR 10/01 A3027 RMK AO2 T00990014
 
KAUS - Austin, Texas, USA
Distance from station: S 25mi, 41km
Updated: Sun, 28-Nov-2021 10:53pm CST
Few Clouds
Few Clouds
 Wind from W
Wind: W 3 mph , 6 km/h
Temperature: 46°F , 8°C
Dew Point: 43°F , 6°C
Humidity: 87%
Barometer: 30.26 inHg , 1024.7 hPa
Clouds: Few Clouds
Visibility: 10 miles , 16 km
Cloud details: Few Clouds 25000 ft
2021/11/29 04:53 KAUS 290453Z 27003KT 10SM FEW250 08/06 A3026 RMK AO2 SLP248 T00830061 $
KILE - Killeen Muni, Texas, USA
Distance from station: N 36mi, 58km
Updated: Sun, 28-Nov-2021 10:56pm CST
Clear
Clear
 Wind from W
Wind: W 6 mph , 9 km/h
Temperature: 46°F , 8°C
Wind Chill: 43°F , 6°C
Dew Point: 36°F , 2°C
Humidity: 66%
Barometer: 30.26 inHg , 1024.7 hPa
Clouds: Clear
Visibility: 10 miles , 16 km
2021/11/29 04:56 KILE 290456Z AUTO 27005KT 10SM CLR 08/02 A3026 RMK AO2 SLP243 T00830022
 
KGRK - Gray/Ft Hood, Texas, USA
Distance from station: NNW 38mi, 62km
Updated: Sun, 28-Nov-2021 10:56pm CST
Clear
Clear
 Wind from WNW
Wind: WNW 3 mph , 6 km/h
Temperature: 50°F , 10°C
Dew Point: 34°F , 1°C
Humidity: 54%
Barometer: 30.24 inHg , 1024 hPa
Clouds: Clear
Visibility: 10 miles , 16 km
2021/11/29 04:56 KGRK 290456Z AUTO 30003KT 10SM CLR 10/01 A3024 RMK AO2 SLP239 T01000011
KBMQ - Burnet, Texas, USA
Distance from station: WNW 39mi, 64km
Updated: Sun, 28-Nov-2021 10:53pm CST
Clear
Clear
 Wind from N
Wind: N 5 mph , 7 km/h
Temperature: 50°F , 10°C
Wind Chill: 48°F , 9°C
Dew Point: 34°F , 1°C
Humidity: 54%
Barometer: 30.29 inHg , 1025.7 hPa
Clouds: Clear
Visibility: 10 miles , 16 km
2021/11/29 04:53 KBMQ 290453Z AUTO 01004KT 10SM CLR 10/01 A3029 RMK AO2 SLP249 T01000011 $
 
KHLR - Ft Hood/Killeen, Texas, USA
Distance from station: N 41mi, 66km
Updated: Sun, 28-Nov-2021 10:58pm CST
Clear
Clear
 Wind from calm
Wind: Calm
Temperature: 48°F , 9°C
Dew Point: 36°F , 2°C
Humidity: 62%
Barometer: 30.25 inHg , 1024.4 hPa
Clouds: Clear
Visibility: 10 miles , 16 km
2021/11/29 04:58 KHLR 290458Z AUTO 00000KT 10SM CLR 09/02 A3025 RMK AO2 SLP241 T00890024
KTPL - Temple/Miller, Texas, USA
Distance from station: NNE 42mi, 68km
Updated: Sun, 28-Nov-2021 10:51pm CST
Clear
Clear
 Wind from WNW
Wind: WNW 5 mph , 7 km/h
Temperature: 45°F , 7°C
Wind Chill: 42°F , 6°C
Dew Point: 39°F , 4°C
Humidity: 81%
Barometer: 30.26 inHg , 1024.7 hPa
Clouds: Clear
Visibility: 10 miles , 16 km
2021/11/29 04:51 KTPL 290451Z AUTO 30004KT 10SM CLR 07/04 A3026 RMK AO2 SLP243 T00670039
 
KT35 - Cameron, Texas, USA
Distance from station: ENE 45mi, 72km
Updated: Sun, 28-Nov-2021 11:15pm CST
Clear
Clear
 Wind from W
Wind: W 3 mph , 6 km/h
Temperature: 50°F , 10°C
Dew Point: 39°F , 4°C
Humidity: 67%
Barometer: 30.25 inHg , 1024.4 hPa
Clouds: Clear
Visibility: 10 miles , 16 km
2021/11/29 05:15 KT35 290515Z AUTO 28003KT 10SM CLR 10/04 A3025 RMK AO2 T01000035
KDZB - Horseshoe Bay, Texas, USA
Distance from station: W 45mi, 73km
Updated: Sun, 28-Nov-2021 11:15pm CST
Clear
Clear
 Wind from S
Wind: S 3 mph , 6 km/h
Temperature: 41°F , 5°C
Dew Point: 39°F , 4°C
Humidity: 93%
Barometer: 30.28 inHg , 1025.4 hPa
Clouds: Clear
Visibility: 10 miles , 16 km
2021/11/29 05:15 KDZB 290515Z AUTO 19003KT 10SM CLR 05/04 A3028 RMK AO2 T00500041
 
KGYB - Giddings-Lee, Texas, USA
Distance from station: SE 45mi, 73km
Updated: Sun, 28-Nov-2021 11:15pm CST
Clear
Clear
 Wind from N
Wind: N 5 mph , 7 km/h
Temperature: 52°F , 11°C
Dew Point: 41°F , 5°C
Humidity: 67%
Barometer: 30.25 inHg , 1024.4 hPa
Clouds: Clear
Visibility: 10 miles , 16 km
2021/11/29 05:15 KGYB 290515Z AUTO 36004KT 10SM CLR 11/05 A3025 RMK AO2 T01120046
KHYI - San Marcos, Texas, USA
Distance from station: SSW 48mi, 78km
Updated: Sun, 28-Nov-2021 10:56pm CST
Clear
Clear
 
Temperature: 45°F , 7°C
Dew Point: 45°F , 7°C
Humidity: 100%
Barometer: 30.27 inHg , 1025.1 hPa
Clouds: Clear
Visibility: 10 miles , 16 km
2021/11/29 04:56 KHYI 290456Z AUTO 10SM CLR 07/07 A3027 RMK AO2 SLP248 T00720072 PNO $
 
KLZZ - Lampasas, Texas, USA
Distance from station: NW 52mi, 84km
Updated: Sun, 28-Nov-2021 11:15pm CST
Clear
Clear
 Wind from calm
Wind: Calm
Temperature: 43°F , 6°C
Dew Point: 36°F , 2°C
Humidity: 76%
Barometer: 30.25 inHg , 1024.4 hPa
Clouds: Clear
Visibility: 10 miles , 16 km
2021/11/29 05:15 KLZZ 290515Z AUTO 00000KT 10SM CLR 06/02 A3025 RMK AO2 T00620018
KRWV - Caldwell, Texas, USA
Distance from station: E 54mi, 87km
Updated: Sun, 28-Nov-2021 11:15pm CST
Clear
Clear
 Wind from NNW
Wind: NNW 5 mph , 7 km/h
Temperature: 48°F , 9°C
Wind Chill: 46°F , 8°C
Dew Point: 41°F , 5°C
Humidity: 76%
Barometer: 30.25 inHg , 1024.4 hPa
Clouds: Clear
Visibility: 10 miles , 16 km
2021/11/29 05:15 KRWV 290515Z AUTO 33004KT 10SM CLR 09/05 A3025 RMK AO2 T00860054
 
K3T5 - La Grange, Texas, USA
Distance from station: SE 59mi, 95km
Updated: Sun, 28-Nov-2021 11:15pm CST
Clear
Clear
 Wind from NNW
Wind: NNW 3 mph , 6 km/h
Temperature: 46°F , 8°C
Dew Point: 46°F , 8°C
Humidity: 100%
Barometer: 30.23 inHg , 1023.7 hPa
Clouds: Clear
Visibility: 10 miles , 16 km
2021/11/29 05:15 K3T5 290515Z AUTO 33003KT 10SM CLR 08/08 A3023 RMK AO2 T00790079
KGOP - Gatesville, Texas, USA
Distance from station: N 61mi, 99km
Updated: Sun, 28-Nov-2021 11:15pm CST
Clear
Clear
 Wind from calm
Wind: Calm
Temperature: 43°F , 6°C
Dew Point: 36°F , 2°C
Humidity: 76%
Barometer: 30.28 inHg , 1025.4 hPa
Clouds: Clear
Visibility: 10 miles , 16 km
2021/11/29 05:15 KGOP 290515Z AUTO 00000KT 10SM CLR 06/02 A3028 RMK AO2
 
KLHB - Hearne Muni, Texas, USA
Distance from station: ENE 63mi, 101km
Updated: Sun, 28-Nov-2021 11:15pm CST

 Wind from calm
Wind: Calm
Barometer: 30.25 inHg , 1024.4 hPa
2021/11/29 05:15 KLHB 290515Z AUTO 00000KT A3025 RMK AO2 PWINO
KBAZ - New Braunfels, Texas, USA
Distance from station: SSW 63mi, 102km
Updated: Sun, 28-Nov-2021 10:51pm CST
Clear
Clear
 Wind from WNW
Wind: WNW 5 mph , 7 km/h
Temperature: 46°F , 8°C
Wind Chill: 44°F , 7°C
Dew Point: 43°F , 6°C
Humidity: 87%
Barometer: 30.25 inHg , 1024.4 hPa
Clouds: Clear
Visibility: 10 miles , 16 km
2021/11/29 04:51 KBAZ 290451Z AUTO 30004KT 10SM CLR 08/06 A3025 RMK AO2 SLP243 T00830061 402170061